sensor_id;sensor_type;location;lat;lon;timestamp;P1;durP1;ratioP1;P2;durP2;ratioP2
67585;SDS011;55785;47.946;20.540;2022-08-19T00:00:04;0.03;;;0.03;;
67585;SDS011;55785;47.946;20.540;2022-08-19T00:02:31;0.50;;;0.40;;
67585;SDS011;55785;47.946;20.540;2022-08-19T00:04:57;0.50;;;0.50;;
67585;SDS011;55785;47.946;20.540;2022-08-19T00:07:22;0.25;;;0.20;;
67585;SDS011;55785;47.946;20.540;2022-08-19T00:09:47;0.32;;;0.32;;
67585;SDS011;55785;47.946;20.540;2022-08-19T00:12:13;0.45;;;0.45;;
67585;SDS011;55785;47.946;20.540;2022-08-19T00:14:38;0.25;;;0.25;;
67585;SDS011;55785;47.946;20.540;2022-08-19T00:17:04;0.22;;;0.22;;
67585;SDS011;55785;47.946;20.540;2022-08-19T00:19:30;0.10;;;0.10;;
67585;SDS011;55785;47.946;20.540;2022-08-19T00:21:56;0.40;;;0.40;;
67585;SDS011;55785;47.946;20.540;2022-08-19T00:24:21;0.40;;;0.40;;
67585;SDS011;55785;47.946;20.540;2022-08-19T00:26:47;0.20;;;0.15;;
67585;SDS011;55785;47.946;20.540;2022-08-19T00:29:13;0.30;;;0.30;;
67585;SDS011;55785;47.946;20.540;2022-08-19T00:31:40;0.55;;;0.30;;
67585;SDS011;55785;47.946;20.540;2022-08-19T00:34:06;0.25;;;0.25;;
67585;SDS011;55785;47.946;20.540;2022-08-19T00:36:31;0.15;;;0.15;;
67585;SDS011;55785;47.946;20.540;2022-08-19T00:38:56;0.30;;;0.30;;
67585;SDS011;55785;47.946;20.540;2022-08-19T00:41:23;0.85;;;0.50;;
67585;SDS011;55785;47.946;20.540;2022-08-19T00:46:34;0.43;;;0.25;;
67585;SDS011;55785;47.946;20.540;2022-08-19T00:49:00;0.10;;;0.10;;
67585;SDS011;55785;47.946;20.540;2022-08-19T00:51:31;0.30;;;0.30;;
67585;SDS011;55785;47.946;20.540;2022-08-19T00:53:57;0.35;;;0.32;;
67585;SDS011;55785;47.946;20.540;2022-08-19T00:56:23;0.05;;;0.05;;
67585;SDS011;55785;47.946;20.540;2022-08-19T00:58:49;0.08;;;0.08;;
67585;SDS011;55785;47.946;20.540;2022-08-19T01:01:15;0.38;;;0.38;;
67585;SDS011;55785;47.946;20.540;2022-08-19T01:03:40;0.20;;;0.20;;
67585;SDS011;55785;47.946;20.540;2022-08-19T01:06:05;0.43;;;0.25;;
67585;SDS011;55785;47.946;20.540;2022-08-19T01:08:31;0.10;;;0.10;;
67585;SDS011;55785;47.946;20.540;2022-08-19T01:10:58;0.20;;;0.20;;
67585;SDS011;55785;47.946;20.540;2022-08-19T01:13:25;0.10;;;0.10;;
67585;SDS011;55785;47.946;20.540;2022-08-19T01:16:03;0.30;;;0.30;;
67585;SDS011;55785;47.946;20.540;2022-08-19T01:18:31;0.40;;;0.40;;
67585;SDS011;55785;47.946;20.540;2022-08-19T01:21:02;0.13;;;0.13;;
67585;SDS011;55785;47.946;20.540;2022-08-19T01:23:34;0.30;;;0.20;;
67585;SDS011;55785;47.946;20.540;2022-08-19T01:25:59;0.25;;;0.25;;
67585;SDS011;55785;47.946;20.540;2022-08-19T01:28:26;0.20;;;0.20;;
67585;SDS011;55785;47.946;20.540;2022-08-19T01:30:52;1.77;;;0.47;;
67585;SDS011;55785;47.946;20.540;2022-08-19T01:33:18;0.03;;;0.03;;
67585;SDS011;55785;47.946;20.540;2022-08-19T01:35:45;0.10;;;0.10;;
67585;SDS011;55785;47.946;20.540;2022-08-19T01:38:19;0.05;;;0.05;;
67585;SDS011;55785;47.946;20.540;2022-08-19T01:40:49;0.08;;;0.08;;
67585;SDS011;55785;47.946;20.540;2022-08-19T01:43:15;0.43;;;0.40;;
67585;SDS011;55785;47.946;20.540;2022-08-19T01:45:40;0.35;;;0.20;;
67585;SDS011;55785;47.946;20.540;2022-08-19T01:48:08;0.10;;;0.10;;
67585;SDS011;55785;47.946;20.540;2022-08-19T01:50:34;0.52;;;0.52;;
67585;SDS011;55785;47.946;20.540;2022-08-19T01:53:01;0.15;;;0.15;;
67585;SDS011;55785;47.946;20.540;2022-08-19T01:55:28;0.25;;;0.25;;
67585;SDS011;55785;47.946;20.540;2022-08-19T01:57:54;0.15;;;0.15;;
67585;SDS011;55785;47.946;20.540;2022-08-19T02:00:23;0.30;;;0.22;;
67585;SDS011;55785;47.946;20.540;2022-08-19T02:02:50;0.45;;;0.45;;
67585;SDS011;55785;47.946;20.540;2022-08-19T02:05:16;0.05;;;0.05;;
67585;SDS011;55785;47.946;20.540;2022-08-19T02:07:42;0.50;;;0.30;;
67585;SDS011;55785;47.946;20.540;2022-08-19T02:10:08;0.00;;;0.00;;
67585;SDS011;55785;47.946;20.540;2022-08-19T02:12:36;0.20;;;0.20;;
67585;SDS011;55785;47.946;20.540;2022-08-19T02:15:02;0.68;;;0.57;;
67585;SDS011;55785;47.946;20.540;2022-08-19T02:17:28;0.20;;;0.20;;
67585;SDS011;55785;47.946;20.540;2022-08-19T02:19:55;0.20;;;0.20;;
67585;SDS011;55785;47.946;20.540;2022-08-19T02:22:20;0.10;;;0.10;;
67585;SDS011;55785;47.946;20.540;2022-08-19T02:24:46;0.30;;;0.30;;
67585;SDS011;55785;47.946;20.540;2022-08-19T02:27:11;0.20;;;0.20;;
67585;SDS011;55785;47.946;20.540;2022-08-19T02:29:36;0.25;;;0.25;;
67585;SDS011;55785;47.946;20.540;2022-08-19T02:32:02;0.28;;;0.25;;
67585;SDS011;55785;47.946;20.540;2022-08-19T02:34:27;0.70;;;0.43;;
67585;SDS011;55785;47.946;20.540;2022-08-19T02:36:53;0.15;;;0.15;;
67585;SDS011;55785;47.946;20.540;2022-08-19T02:39:18;0.28;;;0.28;;
67585;SDS011;55785;47.946;20.540;2022-08-19T02:41:44;0.17;;;0.15;;
67585;SDS011;55785;47.946;20.540;2022-08-19T02:44:09;0.20;;;0.20;;
67585;SDS011;55785;47.946;20.540;2022-08-19T02:46:34;0.10;;;0.10;;
67585;SDS011;55785;47.946;20.540;2022-08-19T02:49:01;0.17;;;0.17;;
67585;SDS011;55785;47.946;20.540;2022-08-19T02:51:30;0.10;;;0.10;;
67585;SDS011;55785;47.946;20.540;2022-08-19T02:53:57;0.22;;;0.22;;
67585;SDS011;55785;47.946;20.540;2022-08-19T02:56:23;0.10;;;0.10;;
67585;SDS011;55785;47.946;20.540;2022-08-19T02:58:48;0.00;;;0.00;;
67585;SDS011;55785;47.946;20.540;2022-08-19T03:01:24;0.15;;;0.15;;
67585;SDS011;55785;47.946;20.540;2022-08-19T03:03:54;0.40;;;0.40;;
67585;SDS011;55785;47.946;20.540;2022-08-19T03:06:19;0.10;;;0.10;;
67585;SDS011;55785;47.946;20.540;2022-08-19T03:08:46;0.30;;;0.30;;
67585;SDS011;55785;47.946;20.540;2022-08-19T03:11:14;0.10;;;0.10;;
67585;SDS011;55785;47.946;20.540;2022-08-19T03:13:43;0.32;;;0.30;;
67585;SDS011;55785;47.946;20.540;2022-08-19T03:16:09;0.00;;;0.00;;
67585;SDS011;55785;47.946;20.540;2022-08-19T03:18:35;0.00;;;0.00;;
67585;SDS011;55785;47.946;20.540;2022-08-19T03:21:01;0.65;;;0.22;;
67585;SDS011;55785;47.946;20.540;2022-08-19T03:23:27;0.10;;;0.10;;
67585;SDS011;55785;47.946;20.540;2022-08-19T03:25:52;0.20;;;0.20;;
67585;SDS011;55785;47.946;20.540;2022-08-19T03:28:18;0.00;;;0.00;;
67585;SDS011;55785;47.946;20.540;2022-08-19T03:30:54;0.25;;;0.25;;
67585;SDS011;55785;47.946;20.540;2022-08-19T03:33:28;0.00;;;0.00;;
67585;SDS011;55785;47.946;20.540;2022-08-19T03:36:01;0.10;;;0.10;;
67585;SDS011;55785;47.946;20.540;2022-08-19T03:38:28;0.20;;;0.10;;
67585;SDS011;55785;47.946;20.540;2022-08-19T03:40:54;0.10;;;0.10;;
67585;SDS011;55785;47.946;20.540;2022-08-19T03:43:19;0.17;;;0.13;;
67585;SDS011;55785;47.946;20.540;2022-08-19T03:45:45;0.28;;;0.28;;
67585;SDS011;55785;47.946;20.540;2022-08-19T03:48:10;0.40;;;0.28;;
67585;SDS011;55785;47.946;20.540;2022-08-19T03:50:39;0.00;;;0.00;;
67585;SDS011;55785;47.946;20.540;2022-08-19T03:53:05;0.10;;;0.10;;
67585;SDS011;55785;47.946;20.540;2022-08-19T03:55:30;0.10;;;0.10;;
67585;SDS011;55785;47.946;20.540;2022-08-19T03:57:55;0.80;;;0.50;;
67585;SDS011;55785;47.946;20.540;2022-08-19T04:00:21;0.20;;;0.20;;
67585;SDS011;55785;47.946;20.540;2022-08-19T04:02:46;0.05;;;0.05;;
67585;SDS011;55785;47.946;20.540;2022-08-19T04:05:11;0.20;;;0.20;;
67585;SDS011;55785;47.946;20.540;2022-08-19T04:07:37;0.40;;;0.40;;
67585;SDS011;55785;47.946;20.540;2022-08-19T04:10:03;0.10;;;0.10;;
67585;SDS011;55785;47.946;20.540;2022-08-19T04:12:28;0.47;;;0.32;;
67585;SDS011;55785;47.946;20.540;2022-08-19T04:14:54;0.35;;;0.25;;
67585;SDS011;55785;47.946;20.540;2022-08-19T04:17:19;0.00;;;0.00;;
67585;SDS011;55785;47.946;20.540;2022-08-19T04:19:44;0.30;;;0.30;;
67585;SDS011;55785;47.946;20.540;2022-08-19T04:22:10;0.10;;;0.10;;
67585;SDS011;55785;47.946;20.540;2022-08-19T04:24:35;0.30;;;0.30;;
67585;SDS011;55785;47.946;20.540;2022-08-19T04:27:01;0.20;;;0.20;;
67585;SDS011;55785;47.946;20.540;2022-08-19T04:29:26;0.20;;;0.20;;
67585;SDS011;55785;47.946;20.540;2022-08-19T04:31:52;0.05;;;0.05;;
67585;SDS011;55785;47.946;20.540;2022-08-19T04:34:19;0.00;;;0.00;;
67585;SDS011;55785;47.946;20.540;2022-08-19T04:36:45;0.20;;;0.20;;
67585;SDS011;55785;47.946;20.540;2022-08-19T04:39:12;0.35;;;0.20;;
67585;SDS011;55785;47.946;20.540;2022-08-19T04:41:39;0.22;;;0.13;;
67585;SDS011;55785;47.946;20.540;2022-08-19T04:44:05;0.03;;;0.03;;
67585;SDS011;55785;47.946;20.540;2022-08-19T04:46:30;0.00;;;0.00;;
67585;SDS011;55785;47.946;20.540;2022-08-19T04:48:56;0.10;;;0.10;;
67585;SDS011;55785;47.946;20.540;2022-08-19T04:51:22;0.20;;;0.13;;
67585;SDS011;55785;47.946;20.540;2022-08-19T04:53:48;0.30;;;0.20;;
67585;SDS011;55785;47.946;20.540;2022-08-19T04:56:14;0.22;;;0.22;;
67585;SDS011;55785;47.946;20.540;2022-08-19T04:58:42;0.13;;;0.13;;
67585;SDS011;55785;47.946;20.540;2022-08-19T05:01:11;0.15;;;0.15;;
67585;SDS011;55785;47.946;20.540;2022-08-19T05:03:38;0.10;;;0.10;;
67585;SDS011;55785;47.946;20.540;2022-08-19T05:06:04;0.22;;;0.22;;
67585;SDS011;55785;47.946;20.540;2022-08-19T05:08:34;0.40;;;0.40;;
67585;SDS011;55785;47.946;20.540;2022-08-19T05:11:00;0.20;;;0.20;;
67585;SDS011;55785;47.946;20.540;2022-08-19T05:13:25;0.20;;;0.20;;
67585;SDS011;55785;47.946;20.540;2022-08-19T05:15:58;0.10;;;0.10;;
67585;SDS011;55785;47.946;20.540;2022-08-19T05:18:24;0.10;;;0.10;;
67585;SDS011;55785;47.946;20.540;2022-08-19T05:20:49;0.10;;;0.10;;
67585;SDS011;55785;47.946;20.540;2022-08-19T05:23:15;0.15;;;0.15;;
67585;SDS011;55785;47.946;20.540;2022-08-19T05:25:40;0.32;;;0.32;;
67585;SDS011;55785;47.946;20.540;2022-08-19T05:28:05;0.55;;;0.30;;
67585;SDS011;55785;47.946;20.540;2022-08-19T05:30:31;0.20;;;0.15;;
67585;SDS011;55785;47.946;20.540;2022-08-19T05:32:56;0.30;;;0.30;;
67585;SDS011;55785;47.946;20.540;2022-08-19T05:35:21;0.40;;;0.30;;
67585;SDS011;55785;47.946;20.540;2022-08-19T05:37:46;0.30;;;0.30;;
67585;SDS011;55785;47.946;20.540;2022-08-19T05:40:12;0.20;;;0.10;;
67585;SDS011;55785;47.946;20.540;2022-08-19T05:42:37;0.22;;;0.22;;
67585;SDS011;55785;47.946;20.540;2022-08-19T05:45:03;0.10;;;0.10;;
67585;SDS011;55785;47.946;20.540;2022-08-19T05:47:28;0.25;;;0.25;;
67585;SDS011;55785;47.946;20.540;2022-08-19T05:49:54;0.25;;;0.25;;
67585;SDS011;55785;47.946;20.540;2022-08-19T05:52:19;0.20;;;0.20;;
67585;SDS011;55785;47.946;20.540;2022-08-19T05:54:45;0.28;;;0.28;;
67585;SDS011;55785;47.946;20.540;2022-08-19T05:57:11;0.20;;;0.20;;
67585;SDS011;55785;47.946;20.540;2022-08-19T05:59:36;0.35;;;0.35;;
67585;SDS011;55785;47.946;20.540;2022-08-19T06:02:02;0.38;;;0.38;;
67585;SDS011;55785;47.946;20.540;2022-08-19T06:04:29;1.05;;;0.50;;
67585;SDS011;55785;47.946;20.540;2022-08-19T06:06:54;0.32;;;0.28;;
67585;SDS011;55785;47.946;20.540;2022-08-19T06:09:20;0.20;;;0.20;;
67585;SDS011;55785;47.946;20.540;2022-08-19T06:14:17;0.40;;;0.40;;
67585;SDS011;55785;47.946;20.540;2022-08-19T06:16:45;0.47;;;0.47;;
67585;SDS011;55785;47.946;20.540;2022-08-19T06:19:13;0.40;;;0.35;;
67585;SDS011;55785;47.946;20.540;2022-08-19T06:21:40;0.32;;;0.32;;
67585;SDS011;55785;47.946;20.540;2022-08-19T06:24:08;0.20;;;0.20;;
67585;SDS011;55785;47.946;20.540;2022-08-19T06:26:36;0.05;;;0.05;;
67585;SDS011;55785;47.946;20.540;2022-08-19T06:29:04;0.40;;;0.40;;
67585;SDS011;55785;47.946;20.540;2022-08-19T06:31:30;0.47;;;0.43;;
67585;SDS011;55785;47.946;20.540;2022-08-19T06:33:55;0.25;;;0.25;;
67585;SDS011;55785;47.946;20.540;2022-08-19T06:36:21;0.47;;;0.47;;
67585;SDS011;55785;47.946;20.540;2022-08-19T06:38:52;0.57;;;0.57;;
67585;SDS011;55785;47.946;20.540;2022-08-19T06:41:17;0.47;;;0.35;;
67585;SDS011;55785;47.946;20.540;2022-08-19T06:43:43;0.77;;;0.52;;
67585;SDS011;55785;47.946;20.540;2022-08-19T06:46:12;0.82;;;0.30;;
67585;SDS011;55785;47.946;20.540;2022-08-19T06:48:39;0.60;;;0.60;;
67585;SDS011;55785;47.946;20.540;2022-08-19T06:51:05;0.35;;;0.30;;
67585;SDS011;55785;47.946;20.540;2022-08-19T06:53:31;0.30;;;0.30;;
67585;SDS011;55785;47.946;20.540;2022-08-19T06:55:57;0.47;;;0.47;;
67585;SDS011;55785;47.946;20.540;2022-08-19T06:58:22;0.80;;;0.60;;
67585;SDS011;55785;47.946;20.540;2022-08-19T07:00:47;0.40;;;0.40;;
67585;SDS011;55785;47.946;20.540;2022-08-19T07:03:13;0.60;;;0.40;;
67585;SDS011;55785;47.946;20.540;2022-08-19T07:05:41;0.30;;;0.30;;
67585;SDS011;55785;47.946;20.540;2022-08-19T07:08:07;0.28;;;0.22;;
67585;SDS011;55785;47.946;20.540;2022-08-19T07:10:32;0.63;;;0.60;;
67585;SDS011;55785;47.946;20.540;2022-08-19T07:12:57;0.35;;;0.35;;
67585;SDS011;55785;47.946;20.540;2022-08-19T07:15:23;0.35;;;0.35;;
67585;SDS011;55785;47.946;20.540;2022-08-19T07:17:48;0.32;;;0.32;;
67585;SDS011;55785;47.946;20.540;2022-08-19T07:20:13;0.93;;;0.45;;
67585;SDS011;55785;47.946;20.540;2022-08-19T07:22:39;0.40;;;0.38;;
67585;SDS011;55785;47.946;20.540;2022-08-19T07:25:06;0.50;;;0.47;;
67585;SDS011;55785;47.946;20.540;2022-08-19T07:27:33;1.05;;;0.63;;
67585;SDS011;55785;47.946;20.540;2022-08-19T07:29:59;0.30;;;0.30;;
67585;SDS011;55785;47.946;20.540;2022-08-19T07:32:25;0.45;;;0.45;;
67585;SDS011;55785;47.946;20.540;2022-08-19T07:34:50;0.60;;;0.45;;
67585;SDS011;55785;47.946;20.540;2022-08-19T07:37:15;0.65;;;0.47;;
67585;SDS011;55785;47.946;20.540;2022-08-19T07:39:41;0.40;;;0.40;;
67585;SDS011;55785;47.946;20.540;2022-08-19T07:42:08;0.35;;;0.35;;
67585;SDS011;55785;47.946;20.540;2022-08-19T07:44:35;0.50;;;0.50;;
67585;SDS011;55785;47.946;20.540;2022-08-19T07:47:01;0.40;;;0.30;;
67585;SDS011;55785;47.946;20.540;2022-08-19T07:49:28;0.30;;;0.30;;
67585;SDS011;55785;47.946;20.540;2022-08-19T07:52:00;0.40;;;0.40;;
67585;SDS011;55785;47.946;20.540;2022-08-19T07:54:30;0.40;;;0.40;;
67585;SDS011;55785;47.946;20.540;2022-08-19T07:56:57;0.13;;;0.13;;
67585;SDS011;55785;47.946;20.540;2022-08-19T07:59:23;0.40;;;0.40;;
67585;SDS011;55785;47.946;20.540;2022-08-19T08:01:49;0.52;;;0.45;;
67585;SDS011;55785;47.946;20.540;2022-08-19T08:04:14;0.40;;;0.40;;
67585;SDS011;55785;47.946;20.540;2022-08-19T08:06:40;0.30;;;0.30;;
67585;SDS011;55785;47.946;20.540;2022-08-19T08:09:06;0.38;;;0.38;;
67585;SDS011;55785;47.946;20.540;2022-08-19T08:11:31;0.40;;;0.40;;
67585;SDS011;55785;47.946;20.540;2022-08-19T08:13:57;0.43;;;0.40;;
67585;SDS011;55785;47.946;20.540;2022-08-19T08:16:22;0.25;;;0.25;;
67585;SDS011;55785;47.946;20.540;2022-08-19T08:18:47;0.50;;;0.50;;
67585;SDS011;55785;47.946;20.540;2022-08-19T08:21:13;1.23;;;0.40;;
67585;SDS011;55785;47.946;20.540;2022-08-19T08:23:38;0.32;;;0.32;;
67585;SDS011;55785;47.946;20.540;2022-08-19T08:26:03;0.75;;;0.75;;
67585;SDS011;55785;47.946;20.540;2022-08-19T08:28:29;0.35;;;0.35;;
67585;SDS011;55785;47.946;20.540;2022-08-19T08:30:54;0.52;;;0.43;;
67585;SDS011;55785;47.946;20.540;2022-08-19T08:33:20;0.95;;;0.57;;
67585;SDS011;55785;47.946;20.540;2022-08-19T08:35:47;1.33;;;0.95;;
67585;SDS011;55785;47.946;20.540;2022-08-19T08:38:12;0.60;;;0.55;;
67585;SDS011;55785;47.946;20.540;2022-08-19T08:43:09;0.50;;;0.40;;
67585;SDS011;55785;47.946;20.540;2022-08-19T08:45:36;0.47;;;0.45;;
67585;SDS011;55785;47.946;20.540;2022-08-19T08:48:20;0.40;;;0.40;;
67585;SDS011;55785;47.946;20.540;2022-08-19T08:50:52;0.57;;;0.50;;
67585;SDS011;55785;47.946;20.540;2022-08-19T08:53:19;0.50;;;0.50;;
67585;SDS011;55785;47.946;20.540;2022-08-19T08:55:45;0.40;;;0.40;;
67585;SDS011;55785;47.946;20.540;2022-08-19T08:58:19;0.60;;;0.60;;
67585;SDS011;55785;47.946;20.540;2022-08-19T09:00:50;0.40;;;0.30;;
67585;SDS011;55785;47.946;20.540;2022-08-19T09:03:19;0.30;;;0.30;;
67585;SDS011;55785;47.946;20.540;2022-08-19T09:10:58;0.65;;;0.52;;
67585;SDS011;55785;47.946;20.540;2022-08-19T09:16:16;0.40;;;0.40;;
67585;SDS011;55785;47.946;20.540;2022-08-19T09:18:47;0.45;;;0.45;;
67585;SDS011;55785;47.946;20.540;2022-08-19T09:21:16;0.80;;;0.50;;
67585;SDS011;55785;47.946;20.540;2022-08-19T09:23:41;0.88;;;0.63;;
67585;SDS011;55785;47.946;20.540;2022-08-19T09:26:10;0.40;;;0.40;;
67585;SDS011;55785;47.946;20.540;2022-08-19T09:31:07;0.60;;;0.43;;
67585;SDS011;55785;47.946;20.540;2022-08-19T09:33:32;0.47;;;0.47;;
67585;SDS011;55785;47.946;20.540;2022-08-19T09:36:04;0.47;;;0.38;;
67585;SDS011;55785;47.946;20.540;2022-08-19T09:38:31;0.55;;;0.40;;
67585;SDS011;55785;47.946;20.540;2022-08-19T09:41:01;0.45;;;0.40;;
67585;SDS011;55785;47.946;20.540;2022-08-19T09:43:30;0.38;;;0.38;;
67585;SDS011;55785;47.946;20.540;2022-08-19T09:45:56;0.30;;;0.30;;
67585;SDS011;55785;47.946;20.540;2022-08-19T09:48:22;0.45;;;0.45;;
67585;SDS011;55785;47.946;20.540;2022-08-19T09:50:47;0.40;;;0.40;;
67585;SDS011;55785;47.946;20.540;2022-08-19T09:53:12;0.60;;;0.60;;
67585;SDS011;55785;47.946;20.540;2022-08-19T09:55:41;0.55;;;0.55;;
67585;SDS011;55785;47.946;20.540;2022-08-19T09:58:07;1.38;;;0.70;;
67585;SDS011;55785;47.946;20.540;2022-08-19T10:00:33;0.60;;;0.50;;
67585;SDS011;55785;47.946;20.540;2022-08-19T10:02:58;0.43;;;0.43;;
67585;SDS011;55785;47.946;20.540;2022-08-19T10:05:24;0.55;;;0.55;;
67585;SDS011;55785;47.946;20.540;2022-08-19T10:07:49;0.60;;;0.50;;
67585;SDS011;55785;47.946;20.540;2022-08-19T10:10:14;1.35;;;0.30;;
67585;SDS011;55785;47.946;20.540;2022-08-19T10:12:39;0.55;;;0.50;;
67585;SDS011;55785;47.946;20.540;2022-08-19T10:15:05;0.30;;;0.30;;
67585;SDS011;55785;47.946;20.540;2022-08-19T10:17:31;0.90;;;0.60;;
67585;SDS011;55785;47.946;20.540;2022-08-19T10:19:56;0.55;;;0.50;;
67585;SDS011;55785;47.946;20.540;2022-08-19T10:22:22;0.40;;;0.40;;
67585;SDS011;55785;47.946;20.540;2022-08-19T10:24:47;0.80;;;0.60;;
67585;SDS011;55785;47.946;20.540;2022-08-19T10:27:13;1.17;;;1.08;;
67585;SDS011;55785;47.946;20.540;2022-08-19T10:29:38;0.63;;;0.55;;
67585;SDS011;55785;47.946;20.540;2022-08-19T10:32:05;0.50;;;0.50;;
67585;SDS011;55785;47.946;20.540;2022-08-19T10:34:31;0.50;;;0.50;;
67585;SDS011;55785;47.946;20.540;2022-08-19T10:36:57;0.52;;;0.52;;
67585;SDS011;55785;47.946;20.540;2022-08-19T10:39:22;0.40;;;0.40;;
67585;SDS011;55785;47.946;20.540;2022-08-19T10:41:48;0.57;;;0.57;;
67585;SDS011;55785;47.946;20.540;2022-08-19T10:44:13;0.20;;;0.20;;
67585;SDS011;55785;47.946;20.540;2022-08-19T10:46:40;0.32;;;0.32;;
67585;SDS011;55785;47.946;20.540;2022-08-19T10:49:08;0.80;;;0.45;;
67585;SDS011;55785;47.946;20.540;2022-08-19T10:51:35;0.40;;;0.40;;
67585;SDS011;55785;47.946;20.540;2022-08-19T10:54:00;0.65;;;0.50;;
67585;SDS011;55785;47.946;20.540;2022-08-19T10:56:26;0.88;;;0.40;;
67585;SDS011;55785;47.946;20.540;2022-08-19T10:58:52;0.60;;;0.57;;
67585;SDS011;55785;47.946;20.540;2022-08-19T11:01:18;0.35;;;0.35;;
67585;SDS011;55785;47.946;20.540;2022-08-19T11:03:43;0.88;;;0.50;;
67585;SDS011;55785;47.946;20.540;2022-08-19T11:06:08;0.70;;;0.70;;
67585;SDS011;55785;47.946;20.540;2022-08-19T11:08:35;0.70;;;0.70;;
67585;SDS011;55785;47.946;20.540;2022-08-19T11:11:01;0.40;;;0.40;;
67585;SDS011;55785;47.946;20.540;2022-08-19T11:13:27;0.40;;;0.40;;
67585;SDS011;55785;47.946;20.540;2022-08-19T11:16:00;0.52;;;0.52;;
67585;SDS011;55785;47.946;20.540;2022-08-19T11:18:28;0.75;;;0.63;;
67585;SDS011;55785;47.946;20.540;2022-08-19T11:20:54;0.50;;;0.50;;
67585;SDS011;55785;47.946;20.540;2022-08-19T11:23:19;0.43;;;0.43;;
67585;SDS011;55785;47.946;20.540;2022-08-19T11:25:45;0.28;;;0.28;;
67585;SDS011;55785;47.946;20.540;2022-08-19T11:28:11;0.63;;;0.60;;
67585;SDS011;55785;47.946;20.540;2022-08-19T11:30:38;0.40;;;0.40;;
67585;SDS011;55785;47.946;20.540;2022-08-19T11:33:03;0.88;;;0.52;;
67585;SDS011;55785;47.946;20.540;2022-08-19T11:35:29;0.50;;;0.50;;
67585;SDS011;55785;47.946;20.540;2022-08-19T11:37:54;0.65;;;0.65;;
67585;SDS011;55785;47.946;20.540;2022-08-19T11:40:20;0.30;;;0.30;;
67585;SDS011;55785;47.946;20.540;2022-08-19T11:42:45;1.23;;;0.50;;
67585;SDS011;55785;47.946;20.540;2022-08-19T11:45:10;0.50;;;0.40;;
67585;SDS011;55785;47.946;20.540;2022-08-19T11:47:35;1.10;;;0.55;;
67585;SDS011;55785;47.946;20.540;2022-08-19T11:50:01;0.40;;;0.40;;
67585;SDS011;55785;47.946;20.540;2022-08-19T11:52:26;0.60;;;0.60;;
67585;SDS011;55785;47.946;20.540;2022-08-19T11:54:51;0.60;;;0.50;;
67585;SDS011;55785;47.946;20.540;2022-08-19T11:57:17;0.70;;;0.60;;
67585;SDS011;55785;47.946;20.540;2022-08-19T11:59:47;0.95;;;0.68;;
67585;SDS011;55785;47.946;20.540;2022-08-19T12:02:13;0.60;;;0.50;;
67585;SDS011;55785;47.946;20.540;2022-08-19T12:04:39;0.80;;;0.50;;
67585;SDS011;55785;47.946;20.540;2022-08-19T12:07:04;0.60;;;0.50;;
67585;SDS011;55785;47.946;20.540;2022-08-19T12:09:29;0.60;;;0.57;;
67585;SDS011;55785;47.946;20.540;2022-08-19T12:11:54;0.68;;;0.50;;
67585;SDS011;55785;47.946;20.540;2022-08-19T12:14:20;0.95;;;0.52;;
67585;SDS011;55785;47.946;20.540;2022-08-19T12:16:45;0.50;;;0.50;;
67585;SDS011;55785;47.946;20.540;2022-08-19T12:19:11;0.60;;;0.60;;
67585;SDS011;55785;47.946;20.540;2022-08-19T12:21:36;0.60;;;0.40;;
67585;SDS011;55785;47.946;20.540;2022-08-19T12:24:03;0.68;;;0.63;;
67585;SDS011;55785;47.946;20.540;2022-08-19T12:26:30;0.50;;;0.50;;
67585;SDS011;55785;47.946;20.540;2022-08-19T12:28:56;0.47;;;0.47;;
67585;SDS011;55785;47.946;20.540;2022-08-19T12:31:21;0.65;;;0.65;;
67585;SDS011;55785;47.946;20.540;2022-08-19T12:33:47;0.63;;;0.60;;
67585;SDS011;55785;47.946;20.540;2022-08-19T12:36:13;0.35;;;0.35;;
67585;SDS011;55785;47.946;20.540;2022-08-19T12:38:40;0.60;;;0.60;;
67585;SDS011;55785;47.946;20.540;2022-08-19T12:41:06;0.75;;;0.70;;
67585;SDS011;55785;47.946;20.540;2022-08-19T12:43:32;0.68;;;0.68;;
67585;SDS011;55785;47.946;20.540;2022-08-19T12:45:59;0.60;;;0.60;;
67585;SDS011;55785;47.946;20.540;2022-08-19T12:48:24;0.65;;;0.50;;
67585;SDS011;55785;47.946;20.540;2022-08-19T12:50:49;0.73;;;0.50;;
67585;SDS011;55785;47.946;20.540;2022-08-19T12:53:15;1.08;;;0.50;;
67585;SDS011;55785;47.946;20.540;2022-08-19T12:55:40;1.00;;;0.73;;
67585;SDS011;55785;47.946;20.540;2022-08-19T12:58:06;0.52;;;0.52;;
67585;SDS011;55785;47.946;20.540;2022-08-19T13:00:32;0.63;;;0.63;;
67585;SDS011;55785;47.946;20.540;2022-08-19T13:02:57;0.60;;;0.60;;
67585;SDS011;55785;47.946;20.540;2022-08-19T13:05:24;0.70;;;0.70;;
67585;SDS011;55785;47.946;20.540;2022-08-19T13:07:52;2.30;;;0.73;;
67585;SDS011;55785;47.946;20.540;2022-08-19T13:10:19;0.70;;;0.70;;
67585;SDS011;55785;47.946;20.540;2022-08-19T13:12:46;0.73;;;0.70;;
67585;SDS011;55785;47.946;20.540;2022-08-19T13:15:13;0.50;;;0.50;;
67585;SDS011;55785;47.946;20.540;2022-08-19T13:17:39;0.60;;;0.60;;
67585;SDS011;55785;47.946;20.540;2022-08-19T13:20:06;0.43;;;0.43;;
67585;SDS011;55785;47.946;20.540;2022-08-19T13:22:33;0.60;;;0.60;;
67585;SDS011;55785;47.946;20.540;2022-08-19T13:24:58;0.70;;;0.60;;
67585;SDS011;55785;47.946;20.540;2022-08-19T13:27:23;0.60;;;0.60;;
67585;SDS011;55785;47.946;20.540;2022-08-19T13:29:49;0.63;;;0.63;;
67585;SDS011;55785;47.946;20.540;2022-08-19T13:32:14;0.50;;;0.50;;
67585;SDS011;55785;47.946;20.540;2022-08-19T13:34:39;0.70;;;0.70;;
67585;SDS011;55785;47.946;20.540;2022-08-19T13:37:05;0.50;;;0.50;;
67585;SDS011;55785;47.946;20.540;2022-08-19T13:39:31;0.60;;;0.60;;
67585;SDS011;55785;47.946;20.540;2022-08-19T13:41:57;0.75;;;0.70;;
67585;SDS011;55785;47.946;20.540;2022-08-19T13:44:23;0.80;;;0.70;;
67585;SDS011;55785;47.946;20.540;2022-08-19T13:46:48;0.50;;;0.50;;
67585;SDS011;55785;47.946;20.540;2022-08-19T13:49:14;0.98;;;0.80;;
67585;SDS011;55785;47.946;20.540;2022-08-19T13:51:40;0.60;;;0.60;;
67585;SDS011;55785;47.946;20.540;2022-08-19T13:54:07;0.70;;;0.70;;
67585;SDS011;55785;47.946;20.540;2022-08-19T13:56:34;0.82;;;0.60;;
67585;SDS011;55785;47.946;20.540;2022-08-19T13:59:04;0.68;;;0.60;;
67585;SDS011;55785;47.946;20.540;2022-08-19T14:01:29;0.80;;;0.75;;
67585;SDS011;55785;47.946;20.540;2022-08-19T14:03:54;0.93;;;0.63;;
67585;SDS011;55785;47.946;20.540;2022-08-19T14:06:20;0.77;;;0.65;;
67585;SDS011;55785;47.946;20.540;2022-08-19T14:08:45;0.60;;;0.52;;
67585;SDS011;55785;47.946;20.540;2022-08-19T14:11:11;0.50;;;0.50;;
67585;SDS011;55785;47.946;20.540;2022-08-19T14:13:36;0.82;;;0.65;;
67585;SDS011;55785;47.946;20.540;2022-08-19T14:16:05;0.88;;;0.70;;
67585;SDS011;55785;47.946;20.540;2022-08-19T14:18:35;0.63;;;0.63;;
67585;SDS011;55785;47.946;20.540;2022-08-19T14:21:00;0.75;;;0.68;;
67585;SDS011;55785;47.946;20.540;2022-08-19T14:23:26;0.60;;;0.60;;
67585;SDS011;55785;47.946;20.540;2022-08-19T14:25:51;0.60;;;0.60;;
67585;SDS011;55785;47.946;20.540;2022-08-19T14:28:16;0.93;;;0.70;;
67585;SDS011;55785;47.946;20.540;2022-08-19T14:30:42;0.45;;;0.45;;
67585;SDS011;55785;47.946;20.540;2022-08-19T14:33:07;0.57;;;0.57;;
67585;SDS011;55785;47.946;20.540;2022-08-19T14:35:33;0.70;;;0.70;;
67585;SDS011;55785;47.946;20.540;2022-08-19T14:37:59;0.70;;;0.50;;
67585;SDS011;55785;47.946;20.540;2022-08-19T14:40:25;0.60;;;0.60;;
67585;SDS011;55785;47.946;20.540;2022-08-19T14:42:52;0.50;;;0.50;;
67585;SDS011;55785;47.946;20.540;2022-08-19T14:45:18;1.05;;;0.65;;